createdAt,value
2023-04-02T00:01:01.895Z,59.25
2023-04-02T00:03:42.463Z,54.53
2023-04-02T00:06:32.943Z,55.88
2023-04-02T00:09:01.402Z,62.88
2023-04-02T00:11:40.532Z,54.88
2023-04-02T00:14:24.856Z,55.50
2023-04-02T00:16:54.038Z,63.67
2023-04-02T00:19:36.693Z,55.95
2023-04-02T00:22:12.356Z,56.25
2023-04-02T00:24:39.995Z,59.72
2023-04-02T00:27:12.323Z,60.63
2023-04-02T00:29:56.319Z,60.88
2023-04-02T00:32:32.307Z,57.72
2023-04-02T00:35:00.523Z,61.72
2023-04-02T00:37:38.726Z,63.15
2023-04-02T00:40:16.977Z,64.75
2023-04-02T00:42:44.916Z,60.58
2023-04-02T00:45:34.898Z,60.85
2023-04-02T00:48:23.994Z,61.78
2023-04-02T00:50:53.064Z,61.22
2023-04-02T00:53:28.651Z,62.13
2023-04-02T00:55:58.786Z,58.55
2023-04-02T00:58:27.771Z,60.97
2023-04-02T01:00:55.141Z,55.83
2023-04-02T01:03:23.699Z,59.85
2023-04-02T01:06:04.588Z,55.03
2023-04-02T01:08:56.395Z,61.55
2023-04-02T01:11:41.778Z,61.50
2023-04-02T01:14:36.882Z,59.95
2023-04-02T01:17:35.190Z,59.35
2023-04-02T01:20:34.420Z,64.60
2023-04-02T01:23:18.178Z,63.80
2023-04-02T01:25:52.427Z,65.60
2023-04-02T01:29:00.626Z,60.85
2023-04-02T01:31:29.896Z,57.05
2023-04-02T01:33:57.408Z,54.53
2023-04-02T01:36:54.895Z,53.85
2023-04-02T01:39:30.291Z,54.97
2023-04-02T01:42:14.747Z,52.75
2023-04-02T01:44:54.289Z,53.58
2023-04-02T01:47:27.465Z,50.72
2023-04-02T01:50:04.387Z,51.50
2023-04-02T01:52:41.709Z,49.92
2023-04-02T01:55:13.218Z,45.78
2023-04-02T01:57:47.446Z,45.97
2023-04-02T02:00:17.026Z,47.75
2023-04-02T02:02:50.703Z,46.38
2023-04-02T02:05:22.830Z,44.17
2023-04-02T02:07:52.200Z,43.95
2023-04-02T02:10:29.809Z,43.80
2023-04-02T02:13:00.359Z,41.03
2023-04-02T02:15:28.833Z,44.05
2023-04-02T02:18:02.222Z,40.05
2023-04-02T02:20:30.056Z,40.78
2023-04-02T02:22:58.881Z,37.03
2023-04-02T02:25:30.613Z,38.47
2023-04-02T02:28:14.893Z,36.17
2023-04-02T02:30:50.440Z,33.45
2023-04-02T02:33:28.433Z,34.92
2023-04-02T02:36:06.509Z,28.52
2023-04-02T02:38:50.696Z,30.50
2023-04-02T02:41:44.805Z,26.52
2023-04-02T02:44:24.107Z,26.20
2023-04-02T02:47:15.786Z,24.73
2023-04-02T02:49:47.650Z,24.30
2023-04-02T02:52:21.593Z,24.90
2023-04-02T02:55:04.680Z,26.38
2023-04-02T02:57:54.149Z,28.65
2023-04-02T03:00:24.704Z,25.98
2023-04-02T03:02:57.214Z,25.83
2023-04-02T03:05:29.284Z,25.88
2023-04-02T03:08:06.420Z,30.58
2023-04-02T03:10:44.096Z,29.25
2023-04-02T03:13:36.796Z,28.08
2023-04-02T03:16:23.445Z,30.27
2023-04-02T03:18:59.972Z,31.67
2023-04-02T03:21:36.808Z,30.50
2023-04-02T03:24:12.341Z,31.35
2023-04-02T03:26:55.431Z,30.60
2023-04-02T03:29:33.097Z,30.27
2023-04-02T03:32:14.760Z,30.35
2023-04-02T03:35:04.272Z,28.65
2023-04-02T03:37:39.820Z,30.73
2023-04-02T03:40:22.317Z,29.77
2023-04-02T03:42:53.708Z,30.55
2023-04-02T03:45:36.672Z,31.20
2023-04-02T03:48:13.402Z,30.40
2023-04-02T03:51:08.883Z,29.35
2023-04-02T03:53:37.133Z,32.28
2023-04-02T03:56:06.649Z,29.27
2023-04-02T03:58:47.148Z,28.80
2023-04-02T04:01:34.520Z,28.80
2023-04-02T04:04:16.420Z,27.25
2023-04-02T04:06:46.244Z,29.77
2023-04-02T04:09:27.457Z,27.90
2023-04-02T04:12:12.824Z,28.33
2023-04-02T04:14:45.482Z,29.65
2023-04-02T04:17:24.878Z,28.85
2023-04-02T04:20:01.892Z,29.02
2023-04-02T04:22:32.831Z,28.40
2023-04-02T04:25:30.600Z,27.85
2023-04-02T04:28:38.917Z,26.65
2023-04-02T04:31:39.157Z,27.90
2023-04-02T04:34:53.564Z,28.25
2023-04-02T04:37:38.593Z,28.52
2023-04-02T04:40:37.666Z,28.15
2023-04-02T04:43:12.318Z,29.00
2023-04-02T04:45:50.729Z,28.92
2023-04-02T04:48:31.486Z,29.85
2023-04-02T04:51:08.770Z,28.50
2023-04-02T04:53:46.480Z,28.27
2023-04-02T04:56:19.880Z,28.88
2023-04-02T04:58:55.854Z,26.88
2023-04-02T05:01:50.485Z,28.67
2023-04-02T05:04:26.405Z,27.95
2023-04-02T05:07:00.112Z,26.42
2023-04-02T05:09:36.201Z,25.80
2023-04-02T05:12:36.743Z,25.30
2023-04-02T05:15:27.417Z,26.80
2023-04-02T05:17:59.592Z,28.60
2023-04-02T05:20:34.591Z,26.63
2023-04-02T05:23:16.290Z,25.92
2023-04-02T05:26:04.470Z,25.95
2023-04-02T05:28:58.496Z,28.17
2023-04-02T05:31:44.151Z,26.80
2023-04-02T05:34:13.402Z,26.80
2023-04-02T05:36:41.179Z,26.77
2023-04-02T05:39:11.110Z,27.42
2023-04-02T05:42:05.651Z,28.67
2023-04-02T05:45:14.012Z,30.70
2023-04-02T05:47:44.444Z,28.63
2023-04-02T05:50:33.521Z,30.80
2023-04-02T05:53:16.149Z,31.25
2023-04-02T05:56:13.068Z,33.45
2023-04-02T05:58:54.693Z,33.67
2023-04-02T06:01:37.650Z,30.25
2023-04-02T06:04:26.273Z,32.13
2023-04-02T06:07:13.479Z,35.30
2023-04-02T06:09:52.147Z,33.05
2023-04-02T06:12:22.139Z,32.03
2023-04-02T06:14:49.942Z,33.70
2023-04-02T06:17:19.932Z,33.08
2023-04-02T06:19:48.620Z,33.50
2023-04-02T06:22:32.739Z,32.47
2023-04-02T06:25:23.841Z,35.63
2023-04-02T06:27:54.915Z,34.97
2023-04-02T06:30:28.450Z,34.72
2023-04-02T06:32:56.776Z,39.88
2023-04-02T06:35:25.526Z,38.80
2023-04-02T06:38:02.702Z,37.38
2023-04-02T06:40:33.511Z,34.85
2023-04-02T06:43:16.571Z,39.10
2023-04-02T06:46:23.571Z,36.05
2023-04-02T06:49:13.483Z,34.08
2023-04-02T06:51:42.788Z,34.72
2023-04-02T06:54:17.836Z,33.78
2023-04-02T06:56:51.473Z,33.25
2023-04-02T06:59:32.412Z,32.97
2023-04-02T07:02:04.499Z,36.00
2023-04-02T07:04:31.978Z,32.30
2023-04-02T07:06:59.454Z,33.10
2023-04-02T07:09:30.926Z,33.55
2023-04-02T07:12:00.604Z,31.73
2023-04-02T07:14:27.600Z,32.75
2023-04-02T07:16:54.803Z,30.58
2023-04-02T07:19:23.236Z,27.17
2023-04-02T07:21:54.857Z,26.85
2023-04-02T07:24:23.939Z,26.55
2023-04-02T07:26:51.491Z,25.90
2023-04-02T07:29:19.937Z,26.27
2023-04-02T07:31:47.426Z,24.15
2023-04-02T07:34:14.538Z,23.85
2023-04-02T07:36:41.904Z,24.67
2023-04-02T07:39:09.034Z,23.65
2023-04-02T07:42:01.238Z,23.35
2023-04-02T07:44:28.930Z,21.45
2023-04-02T07:46:56.423Z,21.35
2023-04-02T07:49:23.595Z,22.15
2023-04-02T07:51:52.224Z,21.70
2023-04-02T07:54:19.267Z,23.38
2023-04-02T07:56:46.619Z,22.02
2023-04-02T07:59:13.790Z,22.58
2023-04-02T08:01:43.148Z,20.08
2023-04-02T08:04:22.160Z,24.42
2023-04-02T08:06:50.518Z,20.70
2023-04-02T08:09:18.074Z,18.45
2023-04-02T08:11:46.634Z,20.98
2023-04-02T08:14:14.427Z,19.80
2023-04-02T08:16:53.153Z,20.27
2023-04-02T08:19:20.865Z,21.55
2023-04-02T08:21:51.631Z,22.45
2023-04-02T08:24:19.455Z,24.33
2023-04-02T08:26:47.767Z,24.65
2023-04-02T08:29:15.168Z,19.55
2023-04-02T08:31:42.354Z,20.20
2023-04-02T08:34:09.803Z,22.70
2023-04-02T08:36:39.537Z,19.23
2023-04-02T08:39:12.013Z,28.02
2023-04-02T08:42:14.544Z,19.98
2023-04-02T08:45:08.090Z,6.00
2023-04-02T08:47:44.382Z,4.80
2023-04-02T08:50:42.846Z,3.15
2023-04-02T08:53:18.437Z,2.25
2023-04-02T08:56:08.592Z,2.03
2023-04-02T08:58:43.045Z,2.08
2023-04-02T09:01:35.141Z,3.03
2023-04-02T09:04:05.722Z,2.80
2023-04-02T09:06:34.826Z,3.97
2023-04-02T09:09:02.157Z,2.83
2023-04-02T09:11:47.948Z,2.47
2023-04-02T09:14:21.397Z,2.35
2023-04-02T09:16:57.621Z,2.38
2023-04-02T09:19:33.321Z,4.05
2023-04-02T09:22:07.758Z,1.40
2023-04-02T09:24:36.801Z,1.80
2023-04-02T09:27:04.270Z,2.60
2023-04-02T09:29:47.180Z,2.23
2023-04-02T09:32:28.178Z,2.08
2023-04-02T09:35:26.311Z,3.40
2023-04-02T09:38:22.588Z,2.17
2023-04-02T09:41:00.779Z,2.95
2023-04-02T09:43:31.997Z,2.70
2023-04-02T09:46:24.495Z,1.20
2023-04-02T09:49:03.626Z,2.73
2023-04-02T09:51:34.422Z,2.80
2023-04-02T09:54:04.456Z,3.37
2023-04-02T09:56:41.629Z,3.53
2023-04-02T09:59:18.029Z,2.47
2023-04-02T10:02:00.990Z,5.28
2023-04-02T10:04:31.162Z,3.45
2023-04-02T10:06:59.274Z,4.45
2023-04-02T10:09:30.802Z,4.00
2023-04-02T10:11:59.605Z,3.58
2023-04-02T10:14:34.375Z,4.22
2023-04-02T10:17:39.861Z,5.80
2023-04-02T10:20:20.195Z,5.70
2023-04-02T10:22:47.516Z,5.57
2023-04-02T10:25:16.778Z,4.30
2023-04-02T10:28:13.166Z,3.03
2023-04-02T10:30:56.616Z,5.53
2023-04-02T10:33:34.605Z,5.13
2023-04-02T10:36:04.907Z,5.10
2023-04-02T10:38:49.740Z,5.00
2023-04-02T10:41:29.230Z,5.27
2023-04-02T10:44:28.533Z,4.77
2023-04-02T10:47:00.435Z,4.40
2023-04-02T10:49:36.204Z,5.03
2023-04-02T10:52:13.690Z,3.30
2023-04-02T10:54:47.010Z,2.17
2023-04-02T10:57:32.564Z,2.37
2023-04-02T11:00:12.137Z,2.57
2023-04-02T11:02:42.485Z,2.80
2023-04-02T11:05:40.317Z,3.10
2023-04-02T11:08:14.664Z,3.65
2023-04-02T11:10:48.175Z,3.60
2023-04-02T11:13:20.177Z,5.40
2023-04-02T11:15:47.422Z,3.67
2023-04-02T11:18:25.025Z,3.67
2023-04-02T11:20:57.328Z,3.83
2023-04-02T11:23:28.917Z,2.73
2023-04-02T11:26:48.105Z,2.30
2023-04-02T11:29:15.332Z,2.00
2023-04-02T11:31:44.319Z,2.30
2023-04-02T11:34:34.253Z,3.10
2023-04-02T11:37:03.364Z,1.97
2023-04-02T11:39:51.576Z,1.53
2023-04-02T11:42:18.668Z,3.00
2023-04-02T11:44:46.082Z,2.40
2023-04-02T11:47:20.674Z,3.77
2023-04-02T11:50:03.409Z,2.70
2023-04-02T11:52:46.015Z,2.77
2023-04-02T11:55:30.844Z,2.53
2023-04-02T11:58:08.446Z,2.17
2023-04-02T12:00:42.233Z,2.80
2023-04-02T12:03:33.851Z,3.33
2023-04-02T12:06:31.199Z,3.00
2023-04-02T12:09:23.885Z,3.50
2023-04-02T12:11:53.358Z,5.03
2023-04-02T12:14:58.830Z,5.97
2023-04-02T12:17:30.554Z,7.07
2023-04-02T12:20:09.757Z,5.77
2023-04-02T12:22:47.571Z,7.30
2023-04-02T12:25:30.143Z,7.10
2023-04-02T12:28:14.453Z,6.33
2023-04-02T12:30:42.342Z,7.57
2023-04-02T12:33:30.577Z,5.97
2023-04-02T12:36:01.018Z,9.40
2023-04-02T12:38:36.785Z,7.90
2023-04-02T12:41:16.756Z,9.07
2023-04-02T12:43:43.841Z,7.83
2023-04-02T12:46:15.221Z,8.73
2023-04-02T12:48:42.766Z,10.93
2023-04-02T12:51:11.267Z,9.90
2023-04-02T12:53:41.011Z,12.20
2023-04-02T12:56:18.369Z,11.33
2023-04-02T12:58:56.999Z,11.60
2023-04-02T13:01:29.353Z,11.40
2023-04-02T13:04:12.308Z,11.97
2023-04-02T13:06:52.282Z,11.27
2023-04-02T13:09:40.090Z,14.07
2023-04-02T13:12:23.247Z,14.17
2023-04-02T13:14:58.020Z,12.83
2023-04-02T13:17:44.148Z,14.47
2023-04-02T13:20:37.268Z,12.83
2023-04-02T13:23:29.773Z,14.53
2023-04-02T13:26:02.398Z,14.70
2023-04-02T13:28:29.871Z,14.90
2023-04-02T13:30:57.052Z,14.10
2023-04-02T13:33:24.317Z,13.07
2023-04-02T13:35:51.346Z,13.77
2023-04-02T13:38:18.360Z,12.93
2023-04-02T13:40:46.456Z,12.43
2023-04-02T13:43:19.714Z,12.07
2023-04-02T13:45:51.698Z,10.63
2023-04-02T13:48:18.836Z,11.17
2023-04-02T13:50:46.740Z,11.60
2023-04-02T13:53:22.335Z,9.13
2023-04-02T13:55:49.993Z,8.83
2023-04-02T13:58:17.354Z,7.73
2023-04-02T14:00:44.648Z,7.87
2023-04-02T14:03:18.858Z,9.37
2023-04-02T14:06:13.175Z,8.83
2023-04-02T14:08:52.405Z,9.00
2023-04-02T14:11:26.107Z,8.23
2023-04-02T14:14:08.448Z,8.30
2023-04-02T14:17:06.593Z,8.13
2023-04-02T14:19:39.420Z,9.07
2023-04-02T14:22:06.603Z,6.20
2023-04-02T14:24:39.732Z,6.33
2023-04-02T14:27:09.533Z,7.63
2023-04-02T14:29:54.620Z,5.43
2023-04-02T14:32:37.508Z,5.53
2023-04-02T14:35:31.633Z,4.50
2023-04-02T14:38:24.318Z,4.67
2023-04-02T14:41:04.669Z,5.53
2023-04-02T14:43:39.402Z,6.00
2023-04-02T14:46:10.558Z,7.47
2023-04-02T14:48:41.212Z,6.37
2023-04-02T14:51:32.282Z,6.43
2023-04-02T14:54:21.325Z,7.07
2023-04-02T14:56:59.344Z,7.60
2023-04-02T14:59:32.402Z,6.00
2023-04-02T15:02:24.299Z,6.97
2023-04-02T15:05:03.416Z,6.27
2023-04-02T15:07:41.825Z,5.77
2023-04-02T15:10:20.959Z,5.60
2023-04-02T15:12:49.761Z,5.47
2023-04-02T15:15:40.814Z,6.13
2023-04-02T15:18:17.631Z,5.57
2023-04-02T15:21:09.411Z,6.33
2023-04-02T15:23:56.110Z,6.47
2023-04-02T15:26:39.540Z,5.73
2023-04-02T15:29:28.724Z,5.37
2023-04-02T15:32:07.936Z,5.07
2023-04-02T15:34:55.985Z,5.27
2023-04-02T15:37:26.910Z,4.37
2023-04-02T15:40:03.753Z,5.97
2023-04-02T15:42:48.399Z,6.33
2023-04-02T15:45:24.582Z,7.17
2023-04-02T15:48:03.887Z,10.23
2023-04-02T15:50:31.571Z,11.67
2023-04-02T15:53:09.857Z,7.90
2023-04-02T15:55:54.502Z,7.43
2023-04-02T15:58:44.961Z,8.60
2023-04-02T16:01:24.464Z,8.23
2023-04-02T16:04:22.218Z,9.67
2023-04-02T16:07:11.580Z,9.33
2023-04-02T16:10:03.162Z,9.40
2023-04-02T16:12:34.672Z,10.10
2023-04-02T16:15:18.152Z,9.13
2023-04-02T16:17:59.329Z,10.87
2023-04-02T16:20:35.046Z,9.83
2023-04-02T16:23:31.972Z,10.13
2023-04-02T16:26:05.007Z,11.60
2023-04-02T16:29:03.908Z,10.93
2023-04-02T16:31:41.720Z,10.97
2023-04-02T16:34:20.377Z,11.80
2023-04-02T16:36:50.582Z,11.83
2023-04-02T16:39:49.478Z,14.27
2023-04-02T16:42:27.994Z,18.43
2023-04-02T16:44:55.712Z,17.17
2023-04-02T16:47:22.895Z,17.03
2023-04-02T16:50:10.614Z,17.73
2023-04-02T16:52:49.922Z,18.97
2023-04-02T16:55:19.690Z,19.17
2023-04-02T16:57:52.210Z,19.53
2023-04-02T17:00:52.755Z,20.90
2023-04-02T17:04:01.854Z,18.07
2023-04-02T17:06:29.032Z,19.73
2023-04-02T17:09:17.582Z,20.13
2023-04-02T17:12:00.303Z,23.53
2023-04-02T17:14:30.206Z,23.10
2023-04-02T17:17:02.233Z,25.00
2023-04-02T17:19:31.276Z,26.90
2023-04-02T17:22:02.204Z,25.90
2023-04-02T17:24:35.717Z,23.97
2023-04-02T17:27:13.665Z,25.07
2023-04-02T17:29:48.126Z,25.33
2023-04-02T17:32:22.846Z,27.63
2023-04-02T17:34:50.000Z,25.40
2023-04-02T17:37:50.158Z,26.90
2023-04-02T17:40:43.268Z,25.83
2023-04-02T17:43:35.673Z,25.30
2023-04-02T17:46:21.416Z,27.37
2023-04-02T17:48:58.418Z,26.40
2023-04-02T17:51:39.838Z,26.90
2023-04-02T17:54:19.207Z,24.33
2023-04-02T17:56:52.425Z,26.93
2023-04-02T17:59:23.734Z,26.30
2023-04-02T18:02:02.850Z,20.10
2023-04-02T18:04:48.392Z,19.97
2023-04-02T18:07:15.583Z,21.33
2023-04-02T18:10:11.028Z,22.67
2023-04-02T18:13:02.439Z,24.10
2023-04-02T18:15:48.466Z,25.10
2023-04-02T18:18:37.040Z,23.93
2023-04-02T18:21:30.238Z,26.00
2023-04-02T18:24:03.274Z,24.20
2023-04-02T18:26:40.139Z,23.47
2023-04-02T18:29:07.304Z,25.27
2023-04-02T18:32:16.044Z,21.53
2023-04-02T18:35:01.353Z,23.10
2023-04-02T18:37:33.250Z,29.13
2023-04-02T18:40:14.645Z,27.40
2023-04-02T18:42:54.142Z,26.40
2023-04-02T18:45:59.473Z,23.63
2023-04-02T18:49:17.912Z,24.60
2023-04-02T18:51:46.422Z,23.23
2023-04-02T18:54:29.858Z,20.73
2023-04-02T18:56:57.152Z,22.37
2023-04-02T18:59:42.432Z,23.50
2023-04-02T19:02:47.406Z,22.53
2023-04-02T19:06:02.255Z,22.03
2023-04-02T19:08:59.550Z,21.83
2023-04-02T19:11:31.385Z,22.30
2023-04-02T19:14:04.651Z,22.63
2023-04-02T19:16:48.439Z,19.27
2023-04-02T19:19:26.549Z,20.47
2023-04-02T19:22:13.290Z,16.90
2023-04-02T19:24:43.353Z,20.10
2023-04-02T19:27:28.635Z,18.43
2023-04-02T19:30:50.608Z,16.50
2023-04-02T19:33:36.004Z,16.17
2023-04-02T19:36:32.786Z,15.17
2023-04-02T19:39:34.061Z,15.90
2023-04-02T19:42:28.877Z,15.20
2023-04-02T19:44:56.047Z,12.03
2023-04-02T19:47:24.676Z,11.07
2023-04-02T19:49:51.943Z,11.30
2023-04-02T19:52:19.640Z,11.73
2023-04-02T19:54:46.744Z,10.83
2023-04-02T19:57:17.424Z,11.53
2023-04-02T19:59:44.484Z,10.23
2023-04-02T20:02:11.780Z,11.53
2023-04-02T20:04:38.870Z,12.53
2023-04-02T20:07:06.122Z,11.63
2023-04-02T20:09:33.247Z,13.40
2023-04-02T20:12:00.369Z,12.17
2023-04-02T20:14:27.375Z,12.60
2023-04-02T20:16:54.531Z,16.13
2023-04-02T20:19:21.484Z,12.83
2023-04-02T20:21:48.733Z,12.87
2023-04-02T20:24:15.837Z,13.27
2023-04-02T20:26:43.046Z,13.83
2023-04-02T20:29:10.063Z,11.13
2023-04-02T20:31:37.190Z,12.23
2023-04-02T20:34:05.828Z,12.13
2023-04-02T20:36:33.024Z,11.73
2023-04-02T20:39:00.344Z,13.77
2023-04-02T20:41:27.628Z,11.27
2023-04-02T20:43:54.935Z,10.27
2023-04-02T20:46:22.923Z,12.47
2023-04-02T20:48:50.160Z,10.00
2023-04-02T20:51:17.541Z,10.47
2023-04-02T20:53:44.661Z,10.97
2023-04-02T20:56:14.633Z,8.37
2023-04-02T20:58:42.521Z,10.03
2023-04-02T21:01:17.004Z,9.90
2023-04-02T21:03:44.517Z,9.13
2023-04-02T21:06:17.116Z,8.00
2023-04-02T21:08:44.564Z,7.20
2023-04-02T21:11:12.176Z,8.10
2023-04-02T21:13:41.863Z,9.57
2023-04-02T21:16:18.636Z,8.70
2023-04-02T21:18:47.450Z,8.83
2023-04-02T21:21:16.079Z,7.20
2023-04-02T21:23:44.364Z,8.10
2023-04-02T21:26:17.550Z,8.07
2023-04-02T21:28:45.656Z,7.40
2023-04-02T21:31:15.861Z,7.77
2023-04-02T21:33:46.436Z,8.83
2023-04-02T21:36:20.396Z,6.93
2023-04-02T21:38:57.108Z,6.63
2023-04-02T21:41:30.478Z,7.07
2023-04-02T21:43:59.684Z,6.93
2023-04-02T21:46:28.677Z,7.30
2023-04-02T21:48:57.606Z,8.17
2023-04-02T21:51:31.376Z,7.77
2023-04-02T21:53:59.370Z,8.37
2023-04-02T21:56:32.068Z,7.23
2023-04-02T21:59:02.077Z,8.73
2023-04-02T22:01:32.702Z,7.03
2023-04-02T22:04:02.171Z,7.10
2023-04-02T22:06:31.717Z,7.33
2023-04-02T22:09:00.425Z,8.03
2023-04-02T22:11:35.818Z,8.27
2023-04-02T22:14:03.665Z,7.83
2023-04-02T22:16:33.056Z,7.37
2023-04-02T22:19:02.422Z,7.50
2023-04-02T22:21:31.127Z,8.13
2023-04-02T22:24:02.608Z,7.93
2023-04-02T22:26:31.399Z,7.10
2023-04-02T22:28:58.929Z,9.10
2023-04-02T22:31:28.063Z,8.70
2023-04-02T22:33:56.928Z,8.37
2023-04-02T22:36:25.525Z,9.43
2023-04-02T22:38:52.720Z,9.07
2023-04-02T22:41:23.676Z,7.30
2023-04-02T22:43:50.820Z,8.00
2023-04-02T22:46:19.522Z,7.43
2023-04-02T22:48:47.485Z,7.87
2023-04-02T22:51:16.353Z,8.77
2023-04-02T22:53:43.462Z,8.17
2023-04-02T22:56:19.788Z,7.70
2023-04-02T22:58:46.924Z,6.87
2023-04-02T23:01:29.578Z,8.70
2023-04-02T23:03:56.793Z,8.67
2023-04-02T23:06:24.929Z,8.93
2023-04-02T23:08:52.615Z,9.87
2023-04-02T23:11:23.131Z,9.43
2023-04-02T23:13:52.772Z,9.17
2023-04-02T23:16:21.650Z,9.07
2023-04-02T23:18:49.142Z,9.53
2023-04-02T23:21:17.312Z,10.57
2023-04-02T23:23:44.870Z,10.47
2023-04-02T23:26:13.517Z,9.43
2023-04-02T23:28:40.968Z,10.80
2023-04-02T23:31:12.521Z,8.60
2023-04-02T23:33:39.698Z,8.97
2023-04-02T23:36:31.091Z,9.63
2023-04-02T23:39:01.560Z,8.47
2023-04-02T23:41:30.529Z,8.83
2023-04-02T23:43:59.456Z,9.27
2023-04-02T23:46:27.092Z,10.10
2023-04-02T23:48:55.185Z,9.53
2023-04-02T23:51:22.758Z,8.33
2023-04-02T23:53:51.021Z,9.70
2023-04-02T23:56:18.733Z,9.70
2023-04-02T23:58:46.019Z,9.80
